Waverly, Minnesota
Current Conditions -  °F | °C
As of 10:35 PM on Monday 20 Oct 2014 (Local Time) from KCFE Reporting Station
Clear Clear  
Wind Chill: 42°   Ceiling: Unl
Heat Index: 44°   Visibility: 10mi
Dew Point: 37°   Wind: 5mph
Humidity: 76%   Direction: 40°NE
Pressure: 30.09"   Gusts: NA
Location:  45.07°N, 93.97°W
Report Text: KCFE 210335Z AUTO 04004KT 10SM CLR 07/03 A3009 RMK AO2 T00690030
Loading
Personal Weather Stations






























Interactive Weather Map
Tropical Storm Tracking
New forecast layout! Learn more

10-Day Weather Forecast

Advertisements
Track Severe Weather on mobile